Time;durP1;ratioP1;P1;durP2;ratioP2;P2;SDS_P1;SDS_P2;PMS_P1;PMS_P2;Temp;Humidity;BMP_temperature;BMP_pressure;BME280_temperature;BME280_humidity;BME280_pressure;Samples;Min_cycle;Max_cycle;Signal;HPM_P1;HPM_P2
2022/04/19 00:00:42;;;;;;;6.82;4.03;;;11.00;99.90;;;;;;5082449;28;20032;-73
2022/04/19 00:03:09;;;;;;;4.38;2.88;;;11.00;99.90;;;;;;5069572;28;20047;-73
2022/04/19 00:05:36;;;;;;;4.13;3.67;;;11.00;99.90;;;;;;5069616;28;20028;-73
2022/04/19 00:08:06;;;;;;;4.07;3.20;;;11.10;99.90;;;;;;5070478;28;20502;-73
2022/04/19 00:10:32;;;;;;;3.40;3.10;;;11.00;99.90;;;;;;5078095;28;20085;-73
2022/04/19 00:12:59;;;;;;;3.28;2.97;;;10.90;99.90;;;;;;5081680;28;20027;-73
2022/04/19 00:15:27;;;;;;;3.40;2.67;;;10.80;99.90;;;;;;5079801;28;20023;-73
2022/04/19 00:17:54;;;;;;;4.78;3.45;;;10.80;99.90;;;;;;5079569;28;20047;-73
2022/04/19 00:20:21;;;;;;;3.97;3.33;;;10.80;99.90;;;;;;5080193;28;20076;-73
2022/04/19 00:22:49;;;;;;;4.05;3.30;;;10.80;99.90;;;;;;5083493;28;20082;-73
2022/04/19 00:25:16;;;;;;;3.50;3.03;;;10.90;99.90;;;;;;5090901;28;20035;-73
2022/04/19 00:27:42;;;;;;;5.50;4.10;;;10.90;99.90;;;;;;5089018;28;20030;-73
2022/04/19 00:30:09;;;;;;;4.75;2.97;;;10.90;99.90;;;;;;5087249;28;20039;-73
2022/04/19 00:32:35;;;;;;;3.10;2.70;;;11.10;99.90;;;;;;5088943;28;20114;-73
2022/04/19 00:35:02;;;;;;;3.38;3.08;;;11.20;99.90;;;;;;5089195;28;20035;-73
2022/04/19 00:37:28;;;;;;;4.70;3.40;;;11.20;99.90;;;;;;5090964;28;20016;-73
2022/04/19 00:39:57;;;;;;;5.50;3.30;;;11.10;99.90;;;;;;5086509;28;20039;-73
2022/04/19 00:42:27;;;;;;;5.07;3.55;;;11.10;99.90;;;;;;5088769;28;20024;-73
2022/04/19 00:45:04;;;;;;;3.38;2.88;;;11.10;99.90;;;;;;5081172;28;20078;-73
2022/04/19 00:47:33;;;;;;;4.10;3.15;;;11.10;99.90;;;;;;5062693;28;20097;-73
2022/04/19 00:50:02;;;;;;;3.10;2.80;;;10.90;99.90;;;;;;5089082;28;20054;-73
2022/04/19 00:52:37;;;;;;;4.88;3.40;;;11.00;99.90;;;;;;5090702;28;20024;-73
2022/04/19 00:55:04;;;;;;;2.85;2.60;;;10.90;99.90;;;;;;5087284;28;20044;-73
2022/04/19 00:57:32;;;;;;;3.03;2.72;;;10.80;99.90;;;;;;5088224;28;20126;-73
2022/04/19 00:59:58;;;;;;;4.03;2.97;;;10.70;99.90;;;;;;5088572;28;20117;-73
2022/04/19 01:02:25;;;;;;;5.05;3.17;;;10.70;99.90;;;;;;5088984;28;20020;-73
2022/04/19 01:04:52;;;;;;;3.10;2.67;;;10.60;99.90;;;;;;5088660;28;20103;-74
2022/04/19 01:07:19;;;;;;;3.22;2.78;;;10.70;99.90;;;;;;5090141;28;20489;-73
2022/04/19 01:09:48;;;;;;;3.50;2.95;;;10.50;99.90;;;;;;5088149;28;20091;-73
2022/04/19 01:15:09;;;;;;;4.82;3.10;;;10.50;99.90;;;;;;5081938;28;20097;-73
2022/04/19 01:17:39;;;;;;;3.75;3.05;;;10.50;99.90;;;;;;5070701;28;20024;-73
2022/04/19 01:20:06;;;;;;;3.25;2.95;;;10.40;99.90;;;;;;5087033;28;20036;-73
2022/04/19 01:22:42;;;;;;;3.22;2.60;;;10.50;99.90;;;;;;5090179;28;20035;-73
2022/04/19 01:25:13;;;;;;;3.38;2.75;;;10.30;99.90;;;;;;5092809;28;20060;-73
2022/04/19 01:27:39;;;;;;;3.20;2.80;;;10.30;99.90;;;;;;5081633;28;20024;-73
2022/04/19 01:30:08;;;;;;;7.75;3.50;;;10.20;99.90;;;;;;5087454;28;20016;-73
2022/04/19 01:32:34;;;;;;;3.00;2.70;;;10.40;99.90;;;;;;5091924;28;20024;-73
2022/04/19 01:35:12;;;;;;;11.32;3.35;;;10.40;99.90;;;;;;5092542;28;20029;-73
2022/04/19 01:37:40;;;;;;;4.60;3.67;;;10.30;99.90;;;;;;5094444;28;20107;-73
2022/04/19 01:40:19;;;;;;;4.00;3.55;;;10.40;99.90;;;;;;5092653;28;20025;-74
2022/04/19 01:42:53;;;;;;;3.72;3.28;;;10.40;99.90;;;;;;5092326;28;20486;-73
2022/04/19 01:45:26;;;;;;;3.83;3.40;;;10.40;99.90;;;;;;5091711;28;20024;-73
2022/04/19 01:47:52;;;;;;;4.28;3.63;;;10.40;99.90;;;;;;5092046;28;20485;-73
2022/04/19 01:50:20;;;;;;;4.63;3.75;;;10.30;99.90;;;;;;5091036;28;20070;-73
2022/04/19 01:52:47;;;;;;;3.75;3.05;;;10.50;99.90;;;;;;5092452;28;20024;-73
2022/04/19 01:55:14;;;;;;;4.13;3.28;;;10.50;99.90;;;;;;5090248;28;20048;-73
2022/04/19 01:57:45;;;;;;;3.63;3.25;;;10.40;99.90;;;;;;5089660;28;20036;-73
2022/04/19 02:00:12;;;;;;;3.92;3.22;;;10.40;99.90;;;;;;5091728;28;20024;-73
2022/04/19 02:02:39;;;;;;;3.33;2.80;;;10.40;99.90;;;;;;5092056;28;20031;-73
2022/04/19 02:05:05;;;;;;;4.95;3.63;;;10.40;99.90;;;;;;5090873;28;20021;-73
2022/04/19 02:07:32;;;;;;;4.22;3.33;;;10.40;99.90;;;;;;5093645;28;20020;-73
2022/04/19 02:10:01;;;;;;;4.30;3.30;;;10.50;99.90;;;;;;5076810;28;20043;-73
2022/04/19 02:12:27;;;;;;;5.40;3.60;;;10.60;99.90;;;;;;5083685;28;20486;-73
2022/04/19 02:14:53;;;;;;;5.65;3.67;;;10.70;99.90;;;;;;5091699;28;20028;-73
2022/04/19 02:17:20;;;;;;;5.72;3.72;;;10.80;99.90;;;;;;5091326;28;20034;-73
2022/04/19 02:19:47;;;;;;;7.18;4.05;;;10.90;99.90;;;;;;5090202;28;20027;-73
2022/04/19 02:22:13;;;;;;;5.10;4.25;;;10.90;99.90;;;;;;5091428;28;20028;-73
2022/04/19 02:24:39;;;;;;;6.90;4.57;;;10.80;99.90;;;;;;5089217;28;20411;-73
2022/04/19 02:27:05;;;;;;;8.40;4.65;;;10.90;99.90;;;;;;5089101;28;20020;-73
2022/04/19 02:29:32;;;;;;;7.03;4.30;;;10.90;99.90;;;;;;5085592;28;20107;-73
2022/04/19 02:31:58;;;;;;;5.72;4.30;;;11.00;99.90;;;;;;5072514;28;20039;-73
2022/04/19 02:34:23;;;;;;;5.32;4.68;;;11.00;99.90;;;;;;5078507;28;20402;-73
2022/04/19 02:36:49;;;;;;;6.55;4.10;;;11.10;99.90;;;;;;5085758;28;20420;-73
2022/04/19 02:39:15;;;;;;;6.90;4.53;;;11.10;99.90;;;;;;5090690;28;20077;-73
2022/04/19 02:41:41;;;;;;;9.60;5.15;;;11.20;99.90;;;;;;5087974;28;20508;-73
2022/04/19 02:44:09;;;;;;;5.85;4.20;;;11.10;99.90;;;;;;5089009;28;20035;-73
2022/04/19 02:46:35;;;;;;;6.22;4.63;;;11.20;99.90;;;;;;5084652;28;20082;-73
2022/04/19 02:49:04;;;;;;;6.90;4.70;;;11.20;99.90;;;;;;5088668;28;20028;-73
2022/04/19 02:51:33;;;;;;;6.95;4.82;;;11.20;99.90;;;;;;5090108;28;20501;-73
2022/04/19 02:53:59;;;;;;;7.22;5.13;;;11.20;99.90;;;;;;5087332;28;20068;-73
2022/04/19 02:56:25;;;;;;;7.47;5.10;;;11.20;99.90;;;;;;5088881;28;20448;-73
2022/04/19 02:58:51;;;;;;;6.70;5.18;;;11.20;99.90;;;;;;5088386;28;20048;-73
2022/04/19 03:01:17;;;;;;;8.90;5.65;;;11.20;99.90;;;;;;5074522;28;20082;-73
2022/04/19 03:03:43;;;;;;;6.57;4.63;;;11.20;99.90;;;;;;5082799;28;20383;-73
2022/04/19 03:06:09;;;;;;;7.82;5.30;;;11.20;99.90;;;;;;5090640;28;20055;-73
2022/04/19 03:08:35;;;;;;;7.05;5.20;;;11.30;99.90;;;;;;5087152;28;20060;-72
2022/04/19 03:11:02;;;;;;;6.38;5.35;;;11.30;99.90;;;;;;5087353;28;20033;-73
2022/04/19 03:13:28;;;;;;;6.70;4.90;;;11.30;99.90;;;;;;5058315;28;20025;-73
2022/04/19 03:15:54;;;;;;;7.45;4.85;;;11.30;99.90;;;;;;5077369;28;20122;-73
2022/04/19 03:18:20;;;;;;;8.45;5.32;;;11.30;99.90;;;;;;5083938;28;20115;-73
2022/04/19 03:20:47;;;;;;;7.05;5.30;;;11.30;99.90;;;;;;5088864;28;20107;-73
2022/04/19 03:28:42;;;;;;;8.15;5.55;;;11.40;99.90;;;;;;5091783;28;20031;-73
2022/04/19 03:31:08;;;;;;;8.40;5.65;;;11.40;99.90;;;;;;5072873;28;20020;-73
2022/04/19 03:33:37;;;;;;;9.82;5.63;;;11.40;99.90;;;;;;5078177;28;20055;-73
2022/04/19 03:36:04;;;;;;;8.18;6.40;;;11.40;99.90;;;;;;5080176;28;20066;-73
2022/04/19 03:38:29;;;;;;;8.10;5.32;;;11.40;99.90;;;;;;5087123;28;20075;-73
2022/04/19 03:40:56;;;;;;;10.38;6.40;;;11.40;99.90;;;;;;5072126;28;20025;-73
2022/04/19 03:43:22;;;;;;;11.85;6.47;;;11.50;99.90;;;;;;5090054;28;20046;-73
2022/04/19 03:45:48;;;;;;;8.57;6.03;;;11.50;99.90;;;;;;5085132;28;20104;-73
2022/04/19 03:48:13;;;;;;;7.78;5.95;;;11.50;99.90;;;;;;5075263;28;20499;-73
2022/04/19 03:50:40;;;;;;;9.68;6.60;;;11.50;99.90;;;;;;5085735;28;20032;-73
2022/04/19 03:53:07;;;;;;;8.68;6.32;;;11.50;99.90;;;;;;5068681;28;20024;-73
2022/04/19 03:55:33;;;;;;;9.25;7.00;;;11.40;99.90;;;;;;5090591;28;20056;-73
2022/04/19 03:57:58;;;;;;;11.88;6.50;;;11.40;99.90;;;;;;5063910;28;20025;-73
2022/04/19 04:00:24;;;;;;;9.35;6.20;;;11.50;99.90;;;;;;5075621;28;20417;-73
2022/04/19 04:02:50;;;;;;;9.77;6.90;;;11.50;99.90;;;;;;5082623;28;20460;-73
2022/04/19 04:05:16;;;;;;;10.23;6.82;;;11.50;99.90;;;;;;5058167;28;20333;-73
2022/04/19 04:07:42;;;;;;;8.95;6.40;;;11.50;99.90;;;;;;5090361;28;20027;-73
2022/04/19 04:10:08;;;;;;;10.57;7.05;;;11.50;99.90;;;;;;5090496;28;20441;-73
2022/04/19 04:12:34;;;;;;;10.85;6.78;;;11.40;99.90;;;;;;5088939;28;20024;-73
2022/04/19 04:15:03;;;;;;;14.25;7.93;;;11.40;99.90;;;;;;5079269;28;20044;-73
2022/04/19 04:17:28;;;;;;;13.77;7.82;;;11.40;99.90;;;;;;5058013;28;20025;-73
2022/04/19 04:19:57;;;;;;;10.93;8.00;;;11.40;99.90;;;;;;5085895;28;20036;-73
2022/04/19 04:22:22;;;;;;;11.68;7.55;;;11.50;99.90;;;;;;5089341;28;20020;-73
2022/04/19 04:24:48;;;;;;;10.65;6.90;;;11.40;99.90;;;;;;5087963;28;20574;-73
2022/04/19 04:27:15;;;;;;;13.40;7.13;;;11.50;99.90;;;;;;5086357;28;20468;-73
2022/04/19 04:29:41;;;;;;;9.20;6.85;;;11.50;99.90;;;;;;5088599;28;20031;-73
2022/04/19 04:32:07;;;;;;;12.45;7.53;;;11.50;99.90;;;;;;5088900;28;20024;-73
2022/04/19 04:34:33;;;;;;;8.90;6.25;;;11.50;99.90;;;;;;5090640;28;20066;-73
2022/04/19 04:36:58;;;;;;;10.07;6.60;;;11.60;99.90;;;;;;5073254;28;20502;-73
2022/04/19 04:39:24;;;;;;;9.13;6.00;;;11.70;99.90;;;;;;5083152;28;20448;-73
2022/04/19 04:41:50;;;;;;;9.90;7.10;;;11.60;99.90;;;;;;5082622;28;20048;-73
2022/04/19 04:44:15;;;;;;;12.38;6.88;;;11.60;99.90;;;;;;5073545;28;20056;-73
2022/04/19 04:49:36;;;;;;;10.27;7.57;;;11.60;99.90;;;;;;5091100;28;20027;-72
2022/04/19 04:52:20;;;;;;;9.98;6.18;;;11.60;99.90;;;;;;5074735;28;20033;-71
2022/04/19 04:54:45;;;;;;;9.18;5.95;;;11.60;99.90;;;;;;5074393;28;20036;-72
2022/04/19 04:57:11;;;;;;;7.90;5.40;;;11.60;99.90;;;;;;5068487;28;20452;-71
2022/04/19 04:59:37;;;;;;;10.82;7.30;;;11.50;99.90;;;;;;5086177;28;20082;-71
2022/04/19 05:02:03;;;;;;;12.05;6.63;;;11.50;99.90;;;;;;5087233;28;20161;-72
2022/04/19 05:04:30;;;;;;;8.20;6.40;;;11.50;99.90;;;;;;5074482;28;20028;-72
2022/04/19 05:06:55;;;;;;;8.70;6.15;;;11.60;99.90;;;;;;5084326;28;20024;-71
2022/04/19 05:09:21;;;;;;;11.68;6.38;;;11.60;99.90;;;;;;5075525;28;20043;-73
2022/04/19 05:11:50;;;;;;;7.78;5.88;;;11.50;99.90;;;;;;5076001;28;20024;-73
2022/04/19 05:14:16;;;;;;;8.80;6.25;;;11.50;99.90;;;;;;5059311;28;20035;-73
2022/04/19 05:16:42;;;;;;;9.85;6.88;;;11.50;99.90;;;;;;5069872;28;20028;-73
2022/04/19 05:19:08;;;;;;;9.25;6.00;;;11.50;99.90;;;;;;5086164;28;20066;-72
2022/04/19 05:21:37;;;;;;;11.40;5.65;;;11.50;99.90;;;;;;5083915;28;20509;-73
2022/04/19 05:24:04;;;;;;;11.10;6.90;;;11.50;99.90;;;;;;5083559;28;20051;-72
2022/04/19 05:26:30;;;;;;;8.73;5.55;;;11.50;99.90;;;;;;5089105;28;20020;-72
2022/04/19 05:28:56;;;;;;;12.82;6.50;;;11.50;99.90;;;;;;5088204;28;20032;-72
2022/04/19 05:31:22;;;;;;;10.27;6.30;;;11.40;99.90;;;;;;5090492;28;20028;-72
2022/04/19 05:33:48;;;;;;;9.80;6.18;;;11.50;99.90;;;;;;5087167;28;20063;-72
2022/04/19 05:36:13;;;;;;;13.32;7.18;;;11.40;99.90;;;;;;5074462;28;20025;-72
2022/04/19 05:38:39;;;;;;;11.25;6.47;;;11.40;99.90;;;;;;5057932;28;20498;-73
2022/04/19 05:41:05;;;;;;;12.80;7.70;;;11.30;99.90;;;;;;5087951;28;20074;-71
2022/04/19 05:43:31;;;;;;;15.23;8.40;;;11.30;99.90;;;;;;5070180;28;20126;-72
2022/04/19 05:46:00;;;;;;;12.13;6.63;;;11.30;99.90;;;;;;5086727;28;20502;-75
2022/04/19 05:48:25;;;;;;;11.25;7.05;;;11.30;99.90;;;;;;5087376;28;20066;-72
2022/04/19 05:50:52;;;;;;;11.38;7.43;;;11.40;99.90;;;;;;5088338;28;20048;-74
2022/04/19 05:53:18;;;;;;;11.93;7.57;;;11.30;99.90;;;;;;5087344;28;20047;-74
2022/04/19 05:55:44;;;;;;;10.68;8.05;;;11.30;99.90;;;;;;5088790;28;20071;-72
2022/04/19 05:58:10;;;;;;;13.00;7.95;;;11.20;99.90;;;;;;5085051;28;20473;-73
2022/04/19 06:00:36;;;;;;;14.77;8.07;;;11.30;99.90;;;;;;5081161;28;20498;-73
2022/04/19 06:05:46;;;;;;;11.15;7.32;;;11.30;99.90;;;;;;5075277;28;20466;-75
2022/04/19 06:08:12;;;;;;;12.77;8.30;;;11.30;99.90;;;;;;5086907;28;20103;-73
2022/04/19 06:10:38;;;;;;;13.55;7.35;;;11.30;99.90;;;;;;5092030;28;20067;-72
2022/04/19 06:13:04;;;;;;;13.63;8.43;;;11.30;99.90;;;;;;5091431;28;20024;-73
2022/04/19 06:15:31;;;;;;;12.63;8.07;;;11.30;99.90;;;;;;5084858;28;20441;-71
2022/04/19 06:17:57;;;;;;;13.52;7.95;;;11.30;99.90;;;;;;5079647;28;20028;-74
2022/04/19 06:20:22;;;;;;;15.10;8.90;;;11.30;99.90;;;;;;5087079;28;20030;-73
2022/04/19 06:22:48;;;;;;;14.65;8.90;;;11.30;99.90;;;;;;5088845;28;20506;-76
2022/04/19 06:25:14;;;;;;;13.90;8.63;;;11.30;99.90;;;;;;5074087;28;20049;-73
2022/04/19 06:27:39;;;;;;;12.07;7.75;;;11.40;99.90;;;;;;5087262;28;20024;-73
2022/04/19 06:30:06;;;;;;;14.77;9.18;;;11.30;99.90;;;;;;5089241;28;20028;-72
2022/04/19 06:32:32;;;;;;;16.58;8.88;;;11.40;99.90;;;;;;5091377;28;20028;-72
2022/04/19 06:34:58;;;;;;;15.63;8.27;;;11.30;99.90;;;;;;5090106;28;20028;-72
2022/04/19 06:37:24;;;;;;;15.68;9.70;;;11.30;99.90;;;;;;5091282;28;20035;-72
2022/04/19 06:39:49;;;;;;;15.38;9.20;;;11.40;99.90;;;;;;5090976;28;20023;-72
2022/04/19 06:42:15;;;;;;;16.95;8.80;;;11.40;99.90;;;;;;5089989;28;20032;-72
2022/04/19 06:44:41;;;;;;;18.48;9.70;;;11.30;99.90;;;;;;5087062;28;20501;-72
2022/04/19 06:47:07;;;;;;;17.80;9.82;;;11.30;99.90;;;;;;5089874;28;20104;-72
2022/04/19 06:49:33;;;;;;;21.23;10.70;;;11.30;99.90;;;;;;5072615;28;20512;-72
2022/04/19 06:51:59;;;;;;;21.10;11.52;;;11.30;99.90;;;;;;5089863;28;20138;-72
2022/04/19 06:54:25;;;;;;;17.27;9.98;;;11.30;99.90;;;;;;5088890;28;20115;-73
2022/04/19 06:56:51;;;;;;;18.95;10.45;;;11.40;99.90;;;;;;5086179;28;20044;-72
2022/04/19 06:59:17;;;;;;;18.33;10.13;;;11.40;99.90;;;;;;5090951;28;20519;-72
2022/04/19 07:01:43;;;;;;;16.80;9.98;;;11.40;99.90;;;;;;5092199;28;20039;-72
2022/04/19 07:04:10;;;;;;;16.92;10.38;;;11.40;99.90;;;;;;5077355;28;20082;-72
2022/04/19 07:06:36;;;;;;;15.73;9.20;;;11.30;99.90;;;;;;5084079;28;20031;-72
2022/04/19 07:09:02;;;;;;;13.25;9.40;;;11.40;99.90;;;;;;5080948;28;20098;-72
2022/04/19 07:11:28;;;;;;;11.32;8.55;;;11.50;99.90;;;;;;5066834;28;20028;-72
2022/04/19 07:13:55;;;;;;;12.65;8.82;;;11.60;99.90;;;;;;5089458;28;20489;-72
2022/04/19 07:16:20;;;;;;;12.90;8.13;;;11.50;99.90;;;;;;5082706;28;20051;-74
2022/04/19 07:18:46;;;;;;;13.65;9.10;;;11.50;99.90;;;;;;5089090;28;20044;-72
2022/04/19 07:26:48;;;;;;;13.05;9.00;;;11.50;99.90;;;;;;5046482;28;20076;-73
2022/04/19 07:29:18;;;;;;;13.10;8.68;;;11.50;99.90;;;;;;5044712;28;20145;-73
2022/04/19 07:31:46;;;;;;;17.63;9.13;;;11.50;99.90;;;;;;5046760;28;20494;-73
2022/04/19 07:34:12;;;;;;;14.07;10.25;;;11.50;99.90;;;;;;5047291;28;20028;-72
2022/04/19 07:36:40;;;;;;;14.85;9.73;;;11.40;99.90;;;;;;5042812;28;20040;-73
2022/04/19 07:39:10;;;;;;;18.35;10.27;;;11.40;99.90;;;;;;5045258;28;20096;-73
2022/04/19 07:41:37;;;;;;;16.67;10.32;;;11.40;99.90;;;;;;5036020;28;20044;-73
2022/04/19 07:44:04;;;;;;;17.92;10.73;;;11.40;99.90;;;;;;5016634;28;20056;-73
2022/04/19 07:46:33;;;;;;;17.83;11.32;;;11.50;99.90;;;;;;5032227;28;20029;-73
2022/04/19 07:48:59;;;;;;;18.92;10.80;;;11.50;99.90;;;;;;5038564;28;20041;-73
2022/04/19 07:51:25;;;;;;;16.15;10.98;;;11.40;99.90;;;;;;5045580;28;20045;-73
2022/04/19 07:53:51;;;;;;;13.30;9.77;;;11.40;99.90;;;;;;5037590;28;20061;-73
2022/04/19 07:56:17;;;;;;;15.52;9.82;;;11.40;99.90;;;;;;5045673;28;20135;-73
2022/04/19 07:58:45;;;;;;;16.45;10.77;;;11.50;99.90;;;;;;5046231;28;20155;-73
2022/04/19 08:01:11;;;;;;;15.77;9.82;;;11.60;99.90;;;;;;5029181;28;20120;-72
2022/04/19 08:03:37;;;;;;;13.73;9.02;;;11.60;99.90;;;;;;5048037;28;20525;-72
2022/04/19 08:06:02;;;;;;;15.32;10.18;;;11.60;99.90;;;;;;5067122;28;20513;-73
2022/04/19 08:08:28;;;;;;;15.05;10.10;;;11.50;99.90;;;;;;5065267;28;20086;-73
2022/04/19 08:10:54;;;;;;;16.58;9.82;;;11.50;99.90;;;;;;5060866;28;20025;-73
2022/04/19 08:13:19;;;;;;;15.30;10.02;;;11.60;99.90;;;;;;5076530;28;20104;-71
2022/04/19 08:15:46;;;;;;;16.63;10.13;;;11.70;99.90;;;;;;5082288;28;20452;-72
2022/04/19 08:18:14;;;;;;;18.08;9.45;;;11.70;99.90;;;;;;5073586;28;20103;-72
2022/04/19 08:20:40;;;;;;;13.32;9.02;;;11.90;99.90;;;;;;5083717;28;20044;-72
2022/04/19 08:23:09;;;;;;;13.07;9.15;;;12.10;99.90;;;;;;5076444;28;20016;-72
2022/04/19 08:25:36;;;;;;;11.55;8.63;;;12.10;99.90;;;;;;5072040;28;20036;-72
2022/04/19 08:28:02;;;;;;;14.30;9.23;;;12.20;99.90;;;;;;5085788;28;20036;-73
2022/04/19 08:30:28;;;;;;;14.25;8.02;;;12.20;99.90;;;;;;5082908;28;20108;-72
2022/04/19 08:32:54;;;;;;;13.40;7.90;;;12.30;99.90;;;;;;5081080;28;20486;-72
2022/04/19 08:35:19;;;;;;;9.50;7.57;;;12.30;99.90;;;;;;5086451;28;20506;-72
2022/04/19 08:37:46;;;;;;;13.07;7.60;;;12.10;99.90;;;;;;5087624;28;20074;-72
2022/04/19 08:40:13;;;;;;;10.50;6.97;;;12.10;99.90;;;;;;5071349;28;20024;-71
2022/04/19 08:42:40;;;;;;;11.00;7.22;;;12.20;99.90;;;;;;5074581;28;20043;-72
2022/04/19 08:45:08;;;;;;;13.43;8.77;;;12.20;99.90;;;;;;5077942;28;20032;-72
2022/04/19 08:47:54;;;;;;;21.35;8.88;;;12.20;99.90;;;;;;5086663;28;20498;-72
2022/04/19 08:50:21;;;;;;;10.32;7.70;;;12.10;99.90;;;;;;5086998;28;20050;-72
2022/04/19 08:57:29;;;;;;;11.75;8.48;;;12.10;99.90;;;;;;5079275;28;20126;-72
2022/04/19 08:58:17;;;;;;;13.73;9.02;;;12.20;99.90;;;;;;5088998;28;20471;-72
2022/04/19 09:00:43;;;;;;;11.80;7.60;;;12.40;99.90;;;;;;5086971;28;20032;-72
2022/04/19 09:03:09;;;;;;;11.32;8.32;;;12.40;99.90;;;;;;5084416;28;20494;-72
2022/04/19 09:05:50;;;;;;;13.13;7.57;;;12.40;99.90;;;;;;5086156;28;20028;-72
2022/04/19 09:08:16;;;;;;;9.80;7.25;;;12.50;99.90;;;;;;5086810;28;20289;-72
2022/04/19 09:10:42;;;;;;;10.48;6.78;;;12.70;99.90;;;;;;5088720;28;20124;-72
2022/04/19 09:13:09;;;;;;;9.52;7.15;;;12.70;99.90;;;;;;5076144;28;20039;-72
2022/04/19 09:15:40;;;;;;;11.55;7.50;;;12.50;99.90;;;;;;5082420;28;20502;-72
2022/04/19 09:18:13;;;;;;;11.45;7.93;;;12.60;99.90;;;;;;5085246;28;20029;-72
2022/04/19 09:20:39;;;;;;;10.10;7.68;;;12.50;99.90;;;;;;5084837;28;20036;-72
2022/04/19 09:23:07;;;;;;;12.82;8.70;;;12.40;99.90;;;;;;5081636;28;20028;-72
2022/04/19 09:25:34;;;;;;;13.35;8.93;;;12.50;99.90;;;;;;5089317;28;20031;-72
2022/04/19 09:28:01;;;;;;;12.50;9.73;;;12.50;99.90;;;;;;5068776;28;20029;-72
2022/04/19 09:30:30;;;;;;;10.73;8.60;;;12.50;99.90;;;;;;5073899;28;20029;-71
2022/04/19 09:33:17;;;;;;;10.95;8.02;;;12.80;99.90;;;;;;5076190;28;20033;-72
2022/04/19 09:35:50;;;;;;;11.80;7.13;;;13.10;99.90;;;;;;5086319;28;20016;-72
2022/04/19 09:38:17;;;;;;;12.90;8.48;;;13.30;99.90;;;;;;5086619;28;20043;-72
2022/04/19 09:40:45;;;;;;;10.65;8.20;;;13.10;99.90;;;;;;5067985;28;20048;-72
2022/04/19 09:43:24;;;;;;;12.32;8.43;;;13.10;99.90;;;;;;5069269;28;20037;-72
2022/04/19 09:46:03;;;;;;;15.45;9.45;;;13.00;99.90;;;;;;5085972;28;20072;-72
2022/04/19 09:48:33;;;;;;;11.60;8.38;;;12.90;99.90;;;;;;5084185;28;20110;-72
2022/04/19 09:51:04;;;;;;;9.55;7.07;;;13.10;99.90;;;;;;5090954;28;20024;-72
2022/04/19 09:53:49;;;;;;;11.63;7.88;;;13.20;99.90;;;;;;5080902;28;20024;-72
2022/04/19 09:56:15;;;;;;;9.80;6.85;;;13.30;99.90;;;;;;5090305;28;20517;-72
2022/04/19 09:58:46;;;;;;;10.93;7.25;;;13.30;99.90;;;;;;5092011;28;20490;-72
2022/04/19 10:09:33;;;;;;;12.48;8.45;;;13.30;99.90;;;;;;5079642;28;20028;-74
2022/04/19 10:11:59;;;;;;;11.73;8.32;;;13.40;99.90;;;;;;5080429;28;20035;-74
2022/04/19 10:14:25;;;;;;;10.63;7.82;;;13.30;99.90;;;;;;5075716;28;20327;-74
2022/04/19 10:16:53;;;;;;;12.63;8.70;;;13.30;99.90;;;;;;5089581;28;20024;-74
2022/04/19 10:19:19;;;;;;;13.85;8.43;;;13.20;99.90;;;;;;5090686;28;20036;-74
2022/04/19 10:21:47;;;;;;;12.95;8.70;;;13.30;99.90;;;;;;5085423;28;20087;-74
2022/04/19 10:24:16;;;;;;;14.35;9.15;;;13.30;99.90;;;;;;5083883;28;20055;-74
2022/04/19 10:26:51;;;;;;;9.45;7.18;;;13.40;99.90;;;;;;5087466;28;20032;-74
2022/04/19 10:29:25;;;;;;;12.18;8.18;;;13.50;99.90;;;;;;5087244;28;20025;-74
2022/04/19 10:32:07;;;;;;;10.15;6.95;;;13.70;99.90;;;;;;5089848;28;20356;-74
2022/04/19 10:34:37;;;;;;;9.35;7.47;;;13.90;99.90;;;;;;5091809;28;20039;-74
2022/04/19 10:37:15;;;;;;;11.52;7.30;;;14.10;99.90;;;;;;5087549;28;20139;-75
2022/04/19 10:39:49;;;;;;;11.65;7.53;;;14.40;99.90;;;;;;5074823;28;20031;-74
2022/04/19 10:42:32;;;;;;;10.43;8.00;;;14.80;99.90;;;;;;5074398;28;20047;-74
2022/04/19 10:45:24;;;;;;;11.63;7.20;;;15.30;99.90;;;;;;5080457;28;20105;-74
2022/04/19 10:47:56;;;;;;;10.48;7.60;;;15.30;99.90;;;;;;5084851;28;20027;-74
2022/04/19 10:50:35;;;;;;;8.48;7.05;;;15.10;99.90;;;;;;5068189;28;20056;-74
2022/04/19 10:53:05;;;;;;;8.98;7.03;;;15.10;99.90;;;;;;5077949;28;20025;-74
2022/04/19 10:55:32;;;;;;;9.90;7.28;;;14.90;99.90;;;;;;5091074;28;20044;-74
2022/04/19 10:58:08;;;;;;;8.57;6.35;;;14.80;99.90;;;;;;5086534;28;20120;-74
2022/04/19 11:00:34;;;;;;;10.27;7.00;;;14.60;99.90;;;;;;5089505;28;20032;-74
2022/04/19 11:03:06;;;;;;;12.90;8.10;;;14.30;99.90;;;;;;5086790;28;20134;-74
2022/04/19 11:05:47;;;;;;;11.77;8.48;;;14.00;99.90;;;;;;5087148;28;20024;-74
2022/04/19 11:08:25;;;;;;;12.85;9.25;;;13.70;99.90;;;;;;5056547;28;20025;-74
2022/04/19 11:11:02;;;;;;;16.48;9.90;;;13.80;99.90;;;;;;5084512;28;20028;-74
2022/04/19 11:13:39;;;;;;;16.08;10.75;;;13.90;99.90;;;;;;5078736;28;20036;-74
2022/04/19 11:16:05;;;;;;;17.25;11.40;;;13.90;99.90;;;;;;5073886;28;20064;-74
2022/04/19 11:18:32;;;;;;;14.80;9.88;;;13.80;99.90;;;;;;5083744;28;20060;-74
2022/04/19 11:21:06;;;;;;;11.90;8.45;;;13.80;99.90;;;;;;5079726;28;20143;-74
2022/04/19 11:23:48;;;;;;;12.07;8.40;;;13.90;99.90;;;;;;5070981;28;20027;-74
2022/04/19 11:26:33;;;;;;;12.38;8.52;;;14.00;99.90;;;;;;5058032;28;20557;-74
2022/04/19 11:29:08;;;;;;;13.38;7.65;;;14.00;99.90;;;;;;5072542;28;20070;-74
2022/04/19 11:31:34;;;;;;;9.77;7.38;;;13.90;99.90;;;;;;5091427;28;20075;-74
2022/04/19 11:34:00;;;;;;;12.60;9.02;;;13.90;99.90;;;;;;5085710;28;20028;-74
2022/04/19 11:36:29;;;;;;;15.13;10.25;;;14.00;99.90;;;;;;5088081;28;20032;-74
2022/04/19 11:38:55;;;;;;;12.40;9.07;;;13.80;99.90;;;;;;5088956;28;20024;-74
2022/04/19 11:46:55;;;;;;;12.73;7.78;;;14.10;99.90;;;;;;5083494;28;20085;-74
2022/04/19 11:49:34;;;;;;;10.70;7.25;;;14.10;99.90;;;;;;5090481;28;20501;-74
2022/04/19 11:52:11;;;;;;;12.45;6.65;;;14.10;99.90;;;;;;5084401;28;20040;-74
2022/04/19 11:54:37;;;;;;;7.40;6.05;;;14.10;99.90;;;;;;5080769;28;20032;-73
2022/04/19 11:57:08;;;;;;;7.47;5.97;;;14.00;99.90;;;;;;5088514;28;20085;-74
2022/04/19 11:59:36;;;;;;;8.57;7.03;;;13.90;99.90;;;;;;5087870;28;20115;-74
2022/04/19 12:02:12;;;;;;;12.18;8.38;;;13.70;99.90;;;;;;5071425;28;20115;-74
2022/04/19 12:04:51;;;;;;;10.88;7.05;;;13.40;99.90;;;;;;5081964;28;20521;-74
2022/04/19 12:07:16;;;;;;;15.57;7.55;;;13.50;99.90;;;;;;5087982;28;20036;-74
2022/04/19 12:09:44;;;;;;;8.57;7.15;;;13.60;99.90;;;;;;5087879;28;20490;-74
2022/04/19 12:12:10;;;;;;;8.52;6.47;;;13.70;99.90;;;;;;5080860;28;20032;-74
2022/04/19 12:14:36;;;;;;;9.60;6.78;;;13.70;99.90;;;;;;5088043;28;20051;-74
2022/04/19 12:17:04;;;;;;;12.23;7.32;;;13.50;99.90;;;;;;5071813;28;20036;-74
2022/04/19 12:19:41;;;;;;;10.50;7.45;;;13.50;99.90;;;;;;5077499;28;20021;-74
2022/04/19 12:22:18;;;;;;;9.15;5.95;;;13.60;99.90;;;;;;5067014;28;20032;-74
2022/04/19 12:24:49;;;;;;;10.65;6.47;;;13.60;99.90;;;;;;5079079;28;20032;-74
2022/04/19 12:27:15;;;;;;;10.02;7.50;;;13.50;99.90;;;;;;5072472;28;20039;-75
2022/04/19 12:30:02;;;;;;;17.48;8.60;;;13.40;99.90;;;;;;5070668;28;20537;-74
2022/04/19 12:32:52;;;;;;;13.27;7.38;;;13.10;99.90;;;;;;5072414;28;20032;-74
2022/04/19 12:35:22;;;;;;;12.15;7.78;;;13.10;99.90;;;;;;5076361;28;20036;-74
2022/04/19 12:38:03;;;;;;;11.90;7.13;;;13.20;99.90;;;;;;5085558;28;20036;-74
2022/04/19 12:40:28;;;;;;;11.03;7.33;;;13.20;99.90;;;;;;5069248;28;20032;-74
2022/04/19 12:42:54;;;;;;;14.60;8.18;;;13.00;99.90;;;;;;5077689;28;20580;-74
2022/04/19 12:45:20;;;;;;;18.40;7.43;;;13.00;99.90;;;;;;5087916;28;20564;-75
2022/04/19 12:47:49;;;;;;;14.02;8.60;;;13.00;99.90;;;;;;5087268;28;20459;-75
2022/04/19 12:50:19;;;;;;;12.32;7.35;;;13.00;99.90;;;;;;5071088;28;20084;-74
2022/04/19 12:52:45;;;;;;;12.00;7.68;;;13.10;99.90;;;;;;5086253;28;20034;-74
2022/04/19 12:55:12;;;;;;;15.05;7.38;;;13.10;99.90;;;;;;5079106;28;20044;-74
2022/04/19 12:57:40;;;;;;;12.50;7.28;;;13.10;99.90;;;;;;5085288;28;20485;-75
2022/04/19 13:00:09;;;;;;;12.70;7.05;;;13.10;99.90;;;;;;5084267;28;20028;-75
2022/04/19 13:02:40;;;;;;;13.00;7.85;;;13.10;99.90;;;;;;5088624;28;20036;-75
2022/04/19 13:05:06;;;;;;;12.93;6.67;;;12.90;99.90;;;;;;5079477;28;20024;-75
2022/04/19 13:13:03;;;;;;;9.90;6.38;;;12.80;99.90;;;;;;5083949;28;20031;-74
2022/04/19 13:15:31;;;;;;;13.82;7.22;;;12.80;99.90;;;;;;5082788;28;20028;-74
2022/04/19 13:17:57;;;;;;;17.23;7.55;;;12.70;99.90;;;;;;5086094;28;20062;-74
2022/04/19 13:20:22;;;;;;;14.55;8.07;;;12.70;99.90;;;;;;5089084;28;20482;-74
2022/04/19 13:22:48;;;;;;;12.48;6.68;;;12.90;99.90;;;;;;5091842;28;20027;-74
2022/04/19 13:25:14;;;;;;;12.98;6.03;;;13.00;99.90;;;;;;5092919;28;20039;-75
2022/04/19 13:27:40;;;;;;;12.20;5.72;;;12.90;99.90;;;;;;5092373;28;20031;-75